createdAt,value
2023-05-05T00:01:07.962Z,2.90
2023-05-05T00:03:35.883Z,2.80
2023-05-05T00:06:03.066Z,2.70
2023-05-05T00:08:30.095Z,2.40
2023-05-05T00:10:57.079Z,2.70
2023-05-05T00:13:24.458Z,2.80
2023-05-05T00:15:52.066Z,2.30
2023-05-05T00:18:19.015Z,2.50
2023-05-05T00:20:51.760Z,2.50
2023-05-05T00:23:18.873Z,2.90
2023-05-05T00:25:45.653Z,3.00
2023-05-05T00:28:15.728Z,2.70
2023-05-05T00:30:47.579Z,2.60
2023-05-05T00:33:15.734Z,2.70
2023-05-05T00:35:47.779Z,3.00
2023-05-05T00:38:14.801Z,3.20
2023-05-05T00:40:41.848Z,2.70
2023-05-05T00:43:08.714Z,3.60
2023-05-05T00:45:37.049Z,2.60
2023-05-05T00:48:04.129Z,2.90
2023-05-05T00:50:31.865Z,2.60
2023-05-05T00:53:04.002Z,2.70
2023-05-05T00:55:32.318Z,2.90
2023-05-05T00:57:59.876Z,3.00
2023-05-05T01:00:27.556Z,2.80
2023-05-05T01:03:00.959Z,2.80
2023-05-05T01:05:32.214Z,2.80
2023-05-05T01:08:18.963Z,2.80
2023-05-05T01:11:11.941Z,2.80
2023-05-05T01:14:09.443Z,3.00
2023-05-05T01:16:36.819Z,2.50
2023-05-05T01:19:32.314Z,2.70
2023-05-05T01:22:00.290Z,3.10
2023-05-05T01:24:54.025Z,3.10
2023-05-05T01:27:34.665Z,2.90
2023-05-05T01:30:28.589Z,3.20
2023-05-05T01:32:58.919Z,3.30
2023-05-05T01:35:31.334Z,3.10
2023-05-05T01:38:02.586Z,3.30
2023-05-05T01:40:33.282Z,2.50
2023-05-05T01:43:00.173Z,3.10
2023-05-05T01:45:29.125Z,3.10
2023-05-05T01:47:56.005Z,3.10
2023-05-05T01:50:22.868Z,3.00
2023-05-05T01:52:50.178Z,3.00
2023-05-05T01:55:22.338Z,2.80
2023-05-05T01:57:49.480Z,3.10
2023-05-05T02:00:17.419Z,2.80
2023-05-05T02:02:46.060Z,2.70
2023-05-05T02:05:13.213Z,2.90
2023-05-05T02:07:40.429Z,2.50
2023-05-05T02:10:08.012Z,3.10
2023-05-05T02:12:36.089Z,2.80
2023-05-05T02:15:03.078Z,3.30
2023-05-05T02:17:30.155Z,2.60
2023-05-05T02:19:58.438Z,3.00
2023-05-05T02:22:25.809Z,3.20
2023-05-05T02:24:53.049Z,3.00
2023-05-05T02:27:20.335Z,3.00
2023-05-05T02:29:52.323Z,3.20
2023-05-05T02:32:35.987Z,3.70
2023-05-05T02:35:15.017Z,3.10
2023-05-05T02:37:48.252Z,3.10
2023-05-05T02:40:15.287Z,3.10
2023-05-05T02:42:43.010Z,3.00
2023-05-05T02:45:12.877Z,3.60
2023-05-05T02:47:41.689Z,2.90
2023-05-05T02:50:09.215Z,3.80
2023-05-05T02:52:38.244Z,3.50
2023-05-05T02:55:05.546Z,3.10
2023-05-05T02:57:41.155Z,3.80
2023-05-05T03:00:21.142Z,3.10
2023-05-05T03:03:18.412Z,3.60
2023-05-05T03:06:19.953Z,4.00
2023-05-05T03:08:55.098Z,3.70
2023-05-05T03:11:28.575Z,3.90
2023-05-05T03:14:03.985Z,4.40
2023-05-05T03:16:31.623Z,5.30
2023-05-05T03:18:59.086Z,5.70
2023-05-05T03:21:26.242Z,5.20
2023-05-05T03:23:53.019Z,4.00
2023-05-05T03:26:20.663Z,3.60
2023-05-05T03:28:47.706Z,4.40
2023-05-05T03:31:21.673Z,4.00
2023-05-05T03:33:51.860Z,4.50
2023-05-05T03:36:20.116Z,5.10
2023-05-05T03:38:47.535Z,4.60
2023-05-05T03:41:14.369Z,5.10
2023-05-05T03:43:41.254Z,5.50
2023-05-05T03:46:09.706Z,5.40
2023-05-05T03:48:36.849Z,6.50
2023-05-05T03:51:04.598Z,6.80
2023-05-05T03:53:32.849Z,6.60
2023-05-05T03:56:05.322Z,5.80
2023-05-05T03:58:32.777Z,7.20
2023-05-05T04:00:59.629Z,7.90
2023-05-05T04:03:26.642Z,8.90
2023-05-05T04:05:53.579Z,8.40
2023-05-05T04:08:21.240Z,9.70
2023-05-05T04:10:48.192Z,9.90
2023-05-05T04:13:15.862Z,9.60
2023-05-05T04:23:09.195Z,7.50
2023-05-05T04:25:36.836Z,7.50
2023-05-05T04:28:04.765Z,7.50
2023-05-05T04:30:32.776Z,7.60
2023-05-05T04:32:59.579Z,7.60
2023-05-05T04:35:26.438Z,7.90
2023-05-05T04:37:54.271Z,7.30
2023-05-05T04:40:21.221Z,7.10
2023-05-05T04:42:54.257Z,7.80
2023-05-05T04:45:22.725Z,8.00
2023-05-05T04:47:49.846Z,9.20
2023-05-05T04:50:18.200Z,10.50
2023-05-05T04:52:45.503Z,11.70
2023-05-05T04:55:12.369Z,12.80
2023-05-05T04:57:39.354Z,14.70
2023-05-05T05:00:07.982Z,13.70
2023-05-05T05:02:37.060Z,15.30
2023-05-05T05:05:05.108Z,17.60
2023-05-05T05:07:32.375Z,20.30
2023-05-05T05:09:59.406Z,17.40
2023-05-05T05:12:26.366Z,16.40
2023-05-05T05:14:53.572Z,17.20
2023-05-05T05:17:20.857Z,14.90
2023-05-05T05:19:47.765Z,14.20
2023-05-05T05:22:14.732Z,12.80
2023-05-05T05:24:42.667Z,13.70
2023-05-05T05:27:10.095Z,13.30
2023-05-05T05:29:38.514Z,10.70
2023-05-05T05:32:06.020Z,8.20
2023-05-05T05:34:34.054Z,9.00
2023-05-05T05:37:06.487Z,8.90
2023-05-05T05:39:35.945Z,7.40
2023-05-05T05:42:03.385Z,7.00
2023-05-05T05:44:32.282Z,6.30
2023-05-05T05:46:59.198Z,7.00
2023-05-05T05:49:26.474Z,8.10
2023-05-05T05:51:53.378Z,10.30
2023-05-05T05:54:20.298Z,10.10
2023-05-05T05:56:47.363Z,11.80
2023-05-05T05:59:15.473Z,13.80
2023-05-05T06:01:42.419Z,14.50
2023-05-05T06:04:09.371Z,15.50
2023-05-05T06:06:37.959Z,12.10
2023-05-05T06:09:04.851Z,12.40
2023-05-05T06:11:34.432Z,11.30
2023-05-05T06:14:01.777Z,12.40
2023-05-05T06:16:29.281Z,11.50
2023-05-05T06:18:57.001Z,11.10
2023-05-05T06:21:23.928Z,10.50
2023-05-05T06:23:51.853Z,10.50
2023-05-05T06:26:18.699Z,10.70
2023-05-05T06:28:45.570Z,10.90
2023-05-05T06:31:13.644Z,10.00
2023-05-05T06:33:40.655Z,10.80
2023-05-05T06:36:07.930Z,11.50
2023-05-05T06:38:36.193Z,10.10
2023-05-05T06:41:03.150Z,11.70
2023-05-05T06:43:30.676Z,10.20
2023-05-05T06:46:00.301Z,11.30
2023-05-05T06:48:27.517Z,10.70
2023-05-05T06:50:56.103Z,10.60
2023-05-05T06:53:23.021Z,11.40
2023-05-05T06:55:50.074Z,10.20
2023-05-05T06:58:17.129Z,10.70
2023-05-05T07:00:43.954Z,9.90
2023-05-05T07:03:11.173Z,11.10
2023-05-05T07:05:38.302Z,10.20
2023-05-05T07:08:06.265Z,10.10
2023-05-05T07:10:33.765Z,9.60
2023-05-05T07:13:00.878Z,8.40
2023-05-05T07:15:29.614Z,7.80
2023-05-05T07:17:56.998Z,8.30
2023-05-05T07:20:24.350Z,7.90
2023-05-05T07:22:51.644Z,7.20
2023-05-05T07:25:18.568Z,8.90
2023-05-05T07:27:45.747Z,7.40
2023-05-05T07:30:15.582Z,6.60
2023-05-05T07:32:45.259Z,8.10
2023-05-05T07:35:12.190Z,6.30
2023-05-05T07:37:39.031Z,5.80
2023-05-05T07:40:06.854Z,6.40
2023-05-05T07:42:35.376Z,7.00
2023-05-05T07:45:02.688Z,5.40
2023-05-05T07:47:29.787Z,3.80
2023-05-05T07:49:57.117Z,4.10
2023-05-05T07:52:37.418Z,5.60
2023-05-05T07:55:11.395Z,7.50
2023-05-05T07:57:38.810Z,4.10
2023-05-05T08:00:06.632Z,4.90
2023-05-05T08:02:54.204Z,4.50
2023-05-05T08:05:21.353Z,8.50
2023-05-05T08:07:48.393Z,11.70
2023-05-05T08:10:15.954Z,16.60
2023-05-05T08:12:43.028Z,17.60
2023-05-05T08:15:10.321Z,20.30
2023-05-05T08:17:50.925Z,21.10
2023-05-05T08:20:18.822Z,15.00
2023-05-05T08:22:45.908Z,9.60
2023-05-05T08:25:13.293Z,7.00
2023-05-05T08:27:41.135Z,11.00
2023-05-05T08:30:08.733Z,5.60
2023-05-05T08:32:37.943Z,5.00
2023-05-05T08:35:05.617Z,6.10
2023-05-05T08:37:32.788Z,5.70
2023-05-05T08:39:59.666Z,6.90
2023-05-05T08:42:37.122Z,6.70
2023-05-05T08:45:07.245Z,5.30
2023-05-05T08:47:35.520Z,5.20
2023-05-05T08:50:05.108Z,4.90
2023-05-05T08:52:43.348Z,5.60
2023-05-05T08:55:17.536Z,5.70
2023-05-05T08:57:56.983Z,6.10
2023-05-05T09:00:26.593Z,5.30
2023-05-05T09:02:58.202Z,5.60
2023-05-05T09:05:25.706Z,5.00
2023-05-05T09:07:52.623Z,5.60
2023-05-05T09:10:19.565Z,5.10
2023-05-05T09:12:49.011Z,5.00
2023-05-05T09:15:15.920Z,4.90
2023-05-05T09:17:43.742Z,5.50
2023-05-05T09:20:11.826Z,5.30
2023-05-05T09:22:39.423Z,5.60
2023-05-05T09:25:11.495Z,4.40
2023-05-05T09:27:42.760Z,4.00
2023-05-05T09:30:10.646Z,4.00
2023-05-05T09:32:49.631Z,4.40
2023-05-05T09:35:17.005Z,4.30
2023-05-05T09:37:43.978Z,4.80
2023-05-05T09:40:12.750Z,3.80
2023-05-05T09:42:39.929Z,3.40
2023-05-05T09:45:19.484Z,3.20
2023-05-05T09:47:46.517Z,3.30
2023-05-05T09:50:17.946Z,3.70
2023-05-05T09:52:55.497Z,5.10
2023-05-05T09:55:23.323Z,4.30
2023-05-05T09:57:50.233Z,4.30
2023-05-05T10:00:17.370Z,3.80
2023-05-05T10:02:45.160Z,3.30
2023-05-05T10:05:13.035Z,3.00
2023-05-05T10:07:42.351Z,3.20
2023-05-05T10:10:13.777Z,2.30
2023-05-05T10:12:41.544Z,3.10
2023-05-05T10:15:09.873Z,2.70
2023-05-05T10:17:50.964Z,2.80
2023-05-05T10:20:29.815Z,3.00
2023-05-05T10:22:56.676Z,3.30
2023-05-05T10:25:30.583Z,2.70
2023-05-05T10:27:59.212Z,2.60
2023-05-05T10:30:29.500Z,2.60
2023-05-05T10:33:22.299Z,2.60
2023-05-05T10:35:52.821Z,2.50
2023-05-05T10:38:20.222Z,2.70
2023-05-05T10:40:47.637Z,2.50
2023-05-05T10:43:14.812Z,2.50
2023-05-05T10:45:41.775Z,2.50
2023-05-05T10:48:12.425Z,3.10
2023-05-05T10:50:44.297Z,2.60
2023-05-05T10:53:27.592Z,1.80
2023-05-05T10:56:10.303Z,2.60
2023-05-05T10:58:51.087Z,3.10
2023-05-05T11:01:32.715Z,2.80
2023-05-05T11:04:19.481Z,2.90
2023-05-05T11:07:09.260Z,4.00
2023-05-05T11:09:57.362Z,2.40
2023-05-05T11:12:24.309Z,2.50
2023-05-05T11:15:29.060Z,2.50
2023-05-05T11:17:59.233Z,2.10
2023-05-05T11:20:35.606Z,2.00
2023-05-05T11:23:02.499Z,2.40
2023-05-05T11:25:39.977Z,2.40
2023-05-05T11:28:07.449Z,2.20
2023-05-05T11:30:35.492Z,2.10
2023-05-05T11:33:30.894Z,2.80
2023-05-05T11:35:58.306Z,2.60
2023-05-05T11:38:47.841Z,2.50
2023-05-05T11:41:29.900Z,1.80
2023-05-05T11:44:09.088Z,1.90
2023-05-05T11:46:36.180Z,1.90
2023-05-05T11:49:03.057Z,2.20
2023-05-05T11:51:30.482Z,2.40
2023-05-05T11:53:59.055Z,2.10
2023-05-05T11:56:26.074Z,2.50
2023-05-05T11:59:09.371Z,2.50
2023-05-05T12:01:40.419Z,2.10
2023-05-05T12:04:11.003Z,3.40
2023-05-05T12:06:38.716Z,2.10
2023-05-05T12:09:06.320Z,2.10
2023-05-05T12:11:33.180Z,2.30
2023-05-05T12:14:09.880Z,1.90
2023-05-05T12:16:37.345Z,1.90
2023-05-05T12:19:07.831Z,3.10
2023-05-05T12:21:35.156Z,2.00
2023-05-05T12:24:02.260Z,2.70
2023-05-05T12:26:32.235Z,2.60
2023-05-05T12:28:59.414Z,1.80
2023-05-05T12:31:39.151Z,2.40
2023-05-05T12:34:07.194Z,2.30
2023-05-05T12:36:35.461Z,2.60
2023-05-05T12:39:04.443Z,2.50
2023-05-05T12:41:31.797Z,2.70
2023-05-05T12:43:59.257Z,3.20
2023-05-05T12:46:26.196Z,3.10
2023-05-05T12:49:04.971Z,3.00
2023-05-05T12:51:33.473Z,2.80
2023-05-05T12:54:04.533Z,3.80
2023-05-05T12:56:42.002Z,3.50
2023-05-05T12:59:10.313Z,2.70
2023-05-05T13:01:47.966Z,3.70
2023-05-05T13:04:14.967Z,3.10
2023-05-05T13:06:43.531Z,3.30
2023-05-05T13:09:26.137Z,3.40
2023-05-05T13:11:53.891Z,4.20
2023-05-05T13:14:21.116Z,4.00
2023-05-05T13:16:48.133Z,2.90
2023-05-05T13:19:15.012Z,3.20
2023-05-05T13:21:41.845Z,3.60
2023-05-05T13:24:25.318Z,3.10
2023-05-05T13:26:56.002Z,4.80
2023-05-05T13:29:25.129Z,3.40
2023-05-05T13:31:52.938Z,3.90
2023-05-05T13:34:19.654Z,3.20
2023-05-05T13:36:51.522Z,3.80
2023-05-05T13:39:18.298Z,3.40
2023-05-05T13:41:45.124Z,4.60
2023-05-05T13:44:13.254Z,4.80
2023-05-05T13:46:46.195Z,4.80
2023-05-05T13:49:13.409Z,4.40
2023-05-05T13:51:40.480Z,4.80
2023-05-05T13:54:07.306Z,4.80
2023-05-05T13:56:34.457Z,4.20
2023-05-05T13:59:01.756Z,4.40
2023-05-05T14:01:29.147Z,4.10
2023-05-05T14:03:57.442Z,3.20
2023-05-05T14:06:25.283Z,4.40
2023-05-05T14:08:52.353Z,5.60
2023-05-05T14:11:20.189Z,4.20
2023-05-05T14:13:47.486Z,4.40
2023-05-05T14:16:14.251Z,3.70
2023-05-05T14:18:41.264Z,4.20
2023-05-05T14:21:08.200Z,4.60
2023-05-05T14:23:35.331Z,3.90
2023-05-05T14:26:02.196Z,3.70
2023-05-05T14:28:29.171Z,4.90
2023-05-05T14:30:56.153Z,4.70
2023-05-05T14:33:23.116Z,4.80
2023-05-05T14:35:49.929Z,5.50
2023-05-05T14:38:16.813Z,5.00
2023-05-05T14:40:43.766Z,4.70
2023-05-05T14:43:10.597Z,4.00
2023-05-05T14:45:37.529Z,3.70
2023-05-05T14:48:04.619Z,3.40
2023-05-05T14:50:31.557Z,3.70
2023-05-05T14:52:58.358Z,3.50
2023-05-05T14:55:25.560Z,3.60
2023-05-05T14:57:52.453Z,3.40
2023-05-05T15:00:19.290Z,3.70
2023-05-05T15:02:47.547Z,3.10
2023-05-05T15:05:14.448Z,3.40
2023-05-05T15:07:41.357Z,4.60
2023-05-05T15:10:08.674Z,4.20
2023-05-05T15:12:35.752Z,4.50
2023-05-05T15:15:02.827Z,3.50
2023-05-05T15:17:31.185Z,4.30
2023-05-05T15:19:58.349Z,3.40
2023-05-05T15:22:25.458Z,3.20
2023-05-05T15:24:52.655Z,3.60
2023-05-05T15:27:19.526Z,3.20
2023-05-05T15:29:46.377Z,4.60
2023-05-05T15:32:13.243Z,3.50
2023-05-05T15:34:40.292Z,3.40
2023-05-05T15:37:07.019Z,3.00
2023-05-05T15:39:33.981Z,2.70
2023-05-05T15:42:04.291Z,2.60
2023-05-05T15:44:31.316Z,3.40
2023-05-05T15:46:58.246Z,2.90
2023-05-05T15:49:25.118Z,3.10
2023-05-05T15:51:51.938Z,2.90
2023-05-05T15:54:23.829Z,3.00
2023-05-05T15:56:50.708Z,3.80
2023-05-05T15:59:18.607Z,3.50
2023-05-05T16:01:46.755Z,3.20
2023-05-05T16:04:14.161Z,4.30
2023-05-05T16:06:40.997Z,4.20
2023-05-05T16:09:08.175Z,4.10
2023-05-05T16:11:36.596Z,4.00
2023-05-05T16:14:03.508Z,3.90
2023-05-05T16:16:30.714Z,3.60
2023-05-05T16:18:57.628Z,3.70
2023-05-05T16:21:25.011Z,3.40
2023-05-05T16:23:51.946Z,4.20
2023-05-05T16:26:18.864Z,3.60
2023-05-05T16:28:45.645Z,4.20
2023-05-05T16:31:13.024Z,4.60
2023-05-05T16:33:48.128Z,4.00
2023-05-05T16:36:15.175Z,5.00
2023-05-05T16:38:43.114Z,4.40
2023-05-05T16:41:11.430Z,3.70
2023-05-05T16:43:38.526Z,4.30
2023-05-05T16:46:07.269Z,4.30
2023-05-05T16:48:35.243Z,4.40
2023-05-05T16:51:02.575Z,4.90
2023-05-05T16:53:29.593Z,4.50
2023-05-05T16:55:56.876Z,4.20
2023-05-05T16:58:24.277Z,4.50
2023-05-05T17:00:51.289Z,4.10
2023-05-05T17:03:19.721Z,4.60
2023-05-05T17:05:49.650Z,5.10
2023-05-05T17:08:17.039Z,5.00
2023-05-05T17:10:44.635Z,4.70
2023-05-05T17:13:12.547Z,5.60
2023-05-05T17:15:40.236Z,5.10
2023-05-05T17:18:07.934Z,5.20
2023-05-05T17:20:36.331Z,4.80
2023-05-05T17:23:04.449Z,5.30
2023-05-05T17:25:32.388Z,5.10
2023-05-05T17:28:04.520Z,5.40
2023-05-05T17:30:32.031Z,5.60
2023-05-05T17:33:00.217Z,6.30
2023-05-05T17:35:27.633Z,6.20
2023-05-05T17:37:54.725Z,6.80
2023-05-05T17:40:24.210Z,7.30
2023-05-05T17:42:55.034Z,6.50
2023-05-05T17:45:26.216Z,7.40
2023-05-05T17:47:57.319Z,6.60
2023-05-05T17:50:27.190Z,6.50
2023-05-05T17:52:57.232Z,5.40
2023-05-05T17:55:30.630Z,5.40
2023-05-05T17:58:00.250Z,5.20
2023-05-05T18:00:30.239Z,5.40
2023-05-05T18:03:01.363Z,4.80
2023-05-05T18:05:37.240Z,4.40
2023-05-05T18:08:07.256Z,3.90
2023-05-05T18:10:37.226Z,4.20
2023-05-05T18:13:08.329Z,4.30
2023-05-05T18:15:40.253Z,3.80
2023-05-05T18:18:11.322Z,3.90
2023-05-05T18:20:43.218Z,4.10
2023-05-05T18:23:13.753Z,3.80
2023-05-05T18:25:49.521Z,4.10
2023-05-05T18:28:18.048Z,3.80
2023-05-05T18:30:49.193Z,3.60
2023-05-05T18:33:26.056Z,5.00
2023-05-05T18:35:57.231Z,3.80
2023-05-05T18:38:28.308Z,3.50
2023-05-05T18:49:12.839Z,4.90
2023-05-05T18:51:39.758Z,4.00
2023-05-05T18:54:11.826Z,3.40
2023-05-05T18:56:43.803Z,3.40
2023-05-05T18:59:11.168Z,3.90
2023-05-05T19:01:38.222Z,3.90
2023-05-05T19:04:08.416Z,3.80
2023-05-05T19:06:39.901Z,3.60
2023-05-05T19:09:06.749Z,3.50
2023-05-05T19:11:33.686Z,3.20
2023-05-05T19:14:02.095Z,2.80
2023-05-05T19:16:30.141Z,3.60
2023-05-05T19:18:59.417Z,3.20
2023-05-05T19:21:26.978Z,3.30
2023-05-05T19:23:59.010Z,3.10
2023-05-05T19:26:26.423Z,3.70
2023-05-05T19:28:58.911Z,3.60
2023-05-05T19:31:30.187Z,3.20
2023-05-05T19:34:04.263Z,2.90
2023-05-05T19:36:31.565Z,3.40
2023-05-05T19:39:01.124Z,3.30
2023-05-05T19:41:29.157Z,3.50
2023-05-05T19:43:56.615Z,3.40
2023-05-05T19:46:25.941Z,2.90
2023-05-05T19:48:52.762Z,3.20
2023-05-05T19:51:19.622Z,3.20
2023-05-05T19:53:46.467Z,3.40
2023-05-05T19:56:13.383Z,3.40
2023-05-05T19:59:01.074Z,4.10
2023-05-05T20:01:29.298Z,3.10
2023-05-05T20:03:56.646Z,3.00
2023-05-05T20:06:23.691Z,3.50
2023-05-05T20:08:50.605Z,3.60
2023-05-05T20:11:17.704Z,3.70
2023-05-05T20:13:45.922Z,3.50
2023-05-05T20:16:13.192Z,3.70
2023-05-05T20:18:40.272Z,3.30
2023-05-05T20:21:07.055Z,3.30
2023-05-05T20:23:36.166Z,3.40
2023-05-05T20:26:02.935Z,3.40
2023-05-05T20:28:33.448Z,3.30
2023-05-05T20:31:00.791Z,3.70
2023-05-05T20:33:28.138Z,3.40
2023-05-05T20:35:55.046Z,3.70
2023-05-05T20:38:22.007Z,3.40
2023-05-05T20:40:49.552Z,3.70
2023-05-05T20:43:17.145Z,3.80
2023-05-05T20:45:44.082Z,3.70
2023-05-05T20:48:10.916Z,3.70
2023-05-05T20:50:38.710Z,3.20
2023-05-05T20:53:14.157Z,3.90
2023-05-05T20:55:41.129Z,3.10
2023-05-05T20:58:07.968Z,3.50
2023-05-05T21:00:35.821Z,3.30
2023-05-05T21:03:04.380Z,3.10
2023-05-05T21:05:32.447Z,3.30
2023-05-05T21:08:01.187Z,3.30
2023-05-05T21:10:28.675Z,2.80
2023-05-05T21:12:55.991Z,3.10
2023-05-05T21:15:23.349Z,2.70
2023-05-05T21:17:50.628Z,2.90
2023-05-05T21:20:29.211Z,2.70
2023-05-05T21:22:56.074Z,2.80
2023-05-05T21:25:23.288Z,2.80
2023-05-05T21:27:50.165Z,3.10
2023-05-05T21:30:17.486Z,2.90
2023-05-05T21:32:44.867Z,3.20
2023-05-05T21:35:12.078Z,2.80
2023-05-05T21:37:38.965Z,2.90
2023-05-05T21:40:13.007Z,3.20
2023-05-05T21:42:40.722Z,3.10
2023-05-05T21:45:08.478Z,3.20
2023-05-05T21:47:35.764Z,3.00
2023-05-05T21:50:09.128Z,2.80
2023-05-05T21:52:36.932Z,3.00
2023-05-05T21:55:04.132Z,3.10
2023-05-05T21:57:31.344Z,2.90
2023-05-05T21:59:58.166Z,2.80
2023-05-05T22:02:25.062Z,2.60
2023-05-05T22:04:51.975Z,2.60
2023-05-05T22:07:18.977Z,2.60
2023-05-05T22:09:45.980Z,2.70
2023-05-05T22:12:13.115Z,2.50
2023-05-05T22:14:40.223Z,2.60
2023-05-05T22:17:07.109Z,2.60
2023-05-05T22:19:39.028Z,2.50
2023-05-05T22:22:06.480Z,2.70
2023-05-05T22:24:33.644Z,2.80
2023-05-05T22:27:01.486Z,2.60
2023-05-05T22:29:28.704Z,3.00
2023-05-05T22:31:55.615Z,2.90
2023-05-05T22:34:23.368Z,2.90
2023-05-05T22:36:50.129Z,2.80
2023-05-05T22:39:17.983Z,2.80
2023-05-05T22:41:44.735Z,2.60
2023-05-05T22:44:11.876Z,2.60
2023-05-05T22:46:38.664Z,2.70
2023-05-05T22:49:06.153Z,2.70
2023-05-05T22:51:34.207Z,3.20
2023-05-05T22:54:01.352Z,2.50
2023-05-05T22:56:28.329Z,3.10
2023-05-05T22:58:55.256Z,2.60
2023-05-05T23:01:22.111Z,2.40
2023-05-05T23:03:49.168Z,2.90
2023-05-05T23:06:16.255Z,2.80
2023-05-05T23:08:43.095Z,2.80
2023-05-05T23:11:11.125Z,2.70
2023-05-05T23:13:38.042Z,2.30
2023-05-05T23:16:05.357Z,2.80
2023-05-05T23:18:33.037Z,2.60
2023-05-05T23:20:59.968Z,2.50
2023-05-05T23:23:26.865Z,2.70
2023-05-05T23:25:53.672Z,2.40
2023-05-05T23:28:25.935Z,2.60
2023-05-05T23:30:53.095Z,2.70
2023-05-05T23:33:19.929Z,2.60
2023-05-05T23:35:47.058Z,2.60
2023-05-05T23:38:14.513Z,2.40
2023-05-05T23:40:41.362Z,2.90
2023-05-05T23:43:08.283Z,2.60
2023-05-05T23:45:35.169Z,3.10
2023-05-05T23:48:02.319Z,2.80
2023-05-05T23:50:29.912Z,2.80
2023-05-05T23:52:56.752Z,2.60
2023-05-05T23:55:23.785Z,2.50
2023-05-05T23:57:52.835Z,2.90
